sensor_id;sensor_type;location;lat;lon;timestamp;pressure;altitude;pressure_sealevel;temperature;humidity
63535;BME280;55128;50.230;18.944;2023-06-01T00:01:42;98689.03;;;9.93;72.35
63535;BME280;55128;50.230;18.944;2023-06-01T00:06:43;98692.94;;;9.85;72.41
63535;BME280;55128;50.230;18.944;2023-06-01T00:11:43;98681.84;;;9.75;73.39
63535;BME280;55128;50.230;18.944;2023-06-01T00:16:44;98687.16;;;9.75;72.97
63535;BME280;55128;50.230;18.944;2023-06-01T00:21:45;98688.31;;;9.68;73.46
63535;BME280;55128;50.230;18.944;2023-06-01T00:26:45;98689.38;;;9.64;72.86
63535;BME280;55128;50.230;18.944;2023-06-01T00:31:46;98686.06;;;9.59;73.28
63535;BME280;55128;50.230;18.944;2023-06-01T00:36:46;98688.34;;;9.46;74.10
63535;BME280;55128;50.230;18.944;2023-06-01T00:41:47;98684.88;;;9.44;74.19
63535;BME280;55128;50.230;18.944;2023-06-01T00:46:47;98681.59;;;9.39;74.03
63535;BME280;55128;50.230;18.944;2023-06-01T00:51:47;98679.00;;;9.37;74.09
63535;BME280;55128;50.230;18.944;2023-06-01T00:56:48;98681.94;;;9.29;74.09
63535;BME280;55128;50.230;18.944;2023-06-01T01:01:48;98673.22;;;9.27;74.27
63535;BME280;55128;50.230;18.944;2023-06-01T01:12:31;98673.63;;;9.17;74.55
63535;BME280;55128;50.230;18.944;2023-06-01T01:17:39;98677.53;;;9.06;74.56
63535;BME280;55128;50.230;18.944;2023-06-01T01:33:34;98681.47;;;8.72;77.30
63535;BME280;55128;50.230;18.944;2023-06-01T01:38:35;98673.34;;;8.79;77.37
63535;BME280;55128;50.230;18.944;2023-06-01T01:43:37;98670.53;;;8.82;76.87
63535;BME280;55128;50.230;18.944;2023-06-01T01:48:54;98665.25;;;8.82;76.71
63535;BME280;55128;50.230;18.944;2023-06-01T01:53:58;98666.41;;;8.74;76.21
63535;BME280;55128;50.230;18.944;2023-06-01T01:59:00;98668.47;;;8.66;76.04
63535;BME280;55128;50.230;18.944;2023-06-01T02:04:02;98665.22;;;8.60;76.63
63535;BME280;55128;50.230;18.944;2023-06-01T02:09:03;98663.78;;;8.51;76.13
63535;BME280;55128;50.230;18.944;2023-06-01T02:14:07;98656.00;;;8.46;76.75
63535;BME280;55128;50.230;18.944;2023-06-01T02:19:07;98652.50;;;8.46;76.50
63535;BME280;55128;50.230;18.944;2023-06-01T02:24:11;98650.19;;;8.35;76.68
63535;BME280;55128;50.230;18.944;2023-06-01T02:29:12;98636.06;;;8.36;77.05
63535;BME280;55128;50.230;18.944;2023-06-01T02:34:12;98647.69;;;8.32;76.72
63535;BME280;55128;50.230;18.944;2023-06-01T02:39:13;98637.53;;;8.20;77.72
63535;BME280;55128;50.230;18.944;2023-06-01T02:44:13;98632.28;;;8.18;77.83
63535;BME280;55128;50.230;18.944;2023-06-01T02:49:14;98634.66;;;8.26;77.13
63535;BME280;55128;50.230;18.944;2023-06-01T02:54:14;98630.22;;;8.28;77.28
63535;BME280;55128;50.230;18.944;2023-06-01T02:59:15;98639.84;;;8.29;77.34
63535;BME280;55128;50.230;18.944;2023-06-01T03:04:15;98632.75;;;8.29;77.07
63535;BME280;55128;50.230;18.944;2023-06-01T03:09:17;98634.41;;;8.33;77.69
63535;BME280;55128;50.230;18.944;2023-06-01T03:14:18;98629.13;;;8.81;78.22
63535;BME280;55128;50.230;18.944;2023-06-01T03:19:18;98622.94;;;9.04;78.37
63535;BME280;55128;50.230;18.944;2023-06-01T03:24:19;98625.03;;;9.60;76.55
63535;BME280;55128;50.230;18.944;2023-06-01T03:29:19;98622.06;;;9.88;75.82
63535;BME280;55128;50.230;18.944;2023-06-01T03:34:20;98622.63;;;9.97;73.79
63535;BME280;55128;50.230;18.944;2023-06-01T03:39:21;98613.84;;;9.74;74.01
63535;BME280;55128;50.230;18.944;2023-06-01T03:44:21;98615.25;;;9.83;74.97
63535;BME280;55128;50.230;18.944;2023-06-01T03:49:22;98613.72;;;9.98;74.51
63535;BME280;55128;50.230;18.944;2023-06-01T03:54:22;98621.66;;;10.18;73.98
63535;BME280;55128;50.230;18.944;2023-06-01T03:59:22;98623.72;;;10.32;74.29
63535;BME280;55128;50.230;18.944;2023-06-01T04:04:28;98618.47;;;10.51;74.16
63535;BME280;55128;50.230;18.944;2023-06-01T04:09:29;98620.78;;;11.14;73.65
63535;BME280;55128;50.230;18.944;2023-06-01T04:14:29;98614.00;;;11.97;72.02
63535;BME280;55128;50.230;18.944;2023-06-01T04:19:30;98617.13;;;12.56;72.21
63535;BME280;55128;50.230;18.944;2023-06-01T04:24:30;98614.72;;;13.47;67.26
63535;BME280;55128;50.230;18.944;2023-06-01T04:29:30;98622.63;;;14.09;66.14
63535;BME280;55128;50.230;18.944;2023-06-01T04:34:31;98615.72;;;15.20;63.53
63535;BME280;55128;50.230;18.944;2023-06-01T04:39:34;98615.94;;;16.24;61.21
63535;BME280;55128;50.230;18.944;2023-06-01T04:44:38;98615.47;;;17.56;57.78
63535;BME280;55128;50.230;18.944;2023-06-01T04:49:40;98609.44;;;19.03;53.47
63535;BME280;55128;50.230;18.944;2023-06-01T04:54:41;98615.19;;;20.49;49.38
63535;BME280;55128;50.230;18.944;2023-06-01T04:59:42;98606.47;;;20.97;47.01
63535;BME280;55128;50.230;18.944;2023-06-01T05:04:42;98612.78;;;22.74;44.98
63535;BME280;55128;50.230;18.944;2023-06-01T05:09:43;98619.06;;;23.02;42.96
63535;BME280;55128;50.230;18.944;2023-06-01T05:14:43;98611.63;;;24.39;39.71
63535;BME280;55128;50.230;18.944;2023-06-01T05:19:43;98611.63;;;24.92;38.09
63535;BME280;55128;50.230;18.944;2023-06-01T05:24:44;98609.38;;;26.46;34.42
63535;BME280;55128;50.230;18.944;2023-06-01T05:29:44;98606.19;;;25.93;35.64
63535;BME280;55128;50.230;18.944;2023-06-01T05:34:45;98604.78;;;26.71;33.23
63535;BME280;55128;50.230;18.944;2023-06-01T05:39:46;98610.19;;;27.90;31.50
63535;BME280;55128;50.230;18.944;2023-06-01T05:44:46;98605.53;;;29.19;28.86
63535;BME280;55128;50.230;18.944;2023-06-01T05:49:47;98611.09;;;28.66;28.86
63535;BME280;55128;50.230;18.944;2023-06-01T05:54:48;98605.25;;;29.51;27.20
63535;BME280;55128;50.230;18.944;2023-06-01T05:59:49;98609.84;;;28.54;29.33
63535;BME280;55128;50.230;18.944;2023-06-01T06:04:49;98605.78;;;29.76;27.73
63535;BME280;55128;50.230;18.944;2023-06-01T06:09:50;98605.66;;;31.18;25.88
63535;BME280;55128;50.230;18.944;2023-06-01T06:14:50;98615.44;;;31.34;25.60
63535;BME280;55128;50.230;18.944;2023-06-01T06:19:51;98610.81;;;31.42;25.87
63535;BME280;55128;50.230;18.944;2023-06-01T06:24:51;98613.50;;;31.76;25.82
63535;BME280;55128;50.230;18.944;2023-06-01T06:29:52;98615.06;;;32.52;24.83
63535;BME280;55128;50.230;18.944;2023-06-01T06:34:52;98608.13;;;33.42;23.27
63535;BME280;55128;50.230;18.944;2023-06-01T06:39:52;98612.91;;;34.30;21.11
63535;BME280;55128;50.230;18.944;2023-06-01T06:44:53;98599.91;;;34.37;20.72
63535;BME280;55128;50.230;18.944;2023-06-01T06:49:53;98599.31;;;34.35;21.56
63535;BME280;55128;50.230;18.944;2023-06-01T06:54:53;98605.75;;;33.91;21.47
63535;BME280;55128;50.230;18.944;2023-06-01T06:59:54;98595.28;;;34.81;20.05
63535;BME280;55128;50.230;18.944;2023-06-01T07:04:54;98598.34;;;35.29;20.03
63535;BME280;55128;50.230;18.944;2023-06-01T07:09:54;98596.31;;;36.15;18.52
63535;BME280;55128;50.230;18.944;2023-06-01T07:14:55;98591.69;;;36.51;18.39
63535;BME280;55128;50.230;18.944;2023-06-01T07:19:55;98589.69;;;36.04;18.34
63535;BME280;55128;50.230;18.944;2023-06-01T07:24:55;98584.66;;;37.60;16.41
63535;BME280;55128;50.230;18.944;2023-06-01T07:29:56;98585.13;;;37.97;16.25
63535;BME280;55128;50.230;18.944;2023-06-01T07:34:56;98587.50;;;36.84;16.72
63535;BME280;55128;50.230;18.944;2023-06-01T07:39:59;98589.38;;;37.59;16.17
63535;BME280;55128;50.230;18.944;2023-06-01T07:45:00;98577.53;;;37.76;16.27
63535;BME280;55128;50.230;18.944;2023-06-01T07:50:00;98577.66;;;37.40;16.11
63535;BME280;55128;50.230;18.944;2023-06-01T07:55:01;98581.31;;;38.66;15.77
63535;BME280;55128;50.230;18.944;2023-06-01T08:00:03;98573.53;;;38.00;15.09
63535;BME280;55128;50.230;18.944;2023-06-01T08:05:09;98582.50;;;39.53;13.71
63535;BME280;55128;50.230;18.944;2023-06-01T08:10:10;98585.91;;;39.38;14.60
63535;BME280;55128;50.230;18.944;2023-06-01T08:15:10;98585.88;;;40.10;12.91
63535;BME280;55128;50.230;18.944;2023-06-01T08:20:14;98584.44;;;40.34;12.97
63535;BME280;55128;50.230;18.944;2023-06-01T08:25:15;98576.72;;;40.84;12.96
63535;BME280;55128;50.230;18.944;2023-06-01T08:30:16;98574.88;;;40.57;12.39
63535;BME280;55128;50.230;18.944;2023-06-01T08:35:17;98565.88;;;39.85;12.39
63535;BME280;55128;50.230;18.944;2023-06-01T08:40:20;98565.91;;;39.14;13.61
63535;BME280;55128;50.230;18.944;2023-06-01T08:45:21;98566.47;;;40.47;11.87
63535;BME280;55128;50.230;18.944;2023-06-01T08:50:23;98555.78;;;41.29;12.27
63535;BME280;55128;50.230;18.944;2023-06-01T08:55:23;98549.41;;;39.52;13.23
63535;BME280;55128;50.230;18.944;2023-06-01T09:00:25;98541.06;;;39.30;13.46
63535;BME280;55128;50.230;18.944;2023-06-01T09:05:26;98541.34;;;40.42;12.47
63535;BME280;55128;50.230;18.944;2023-06-01T09:10:27;98532.94;;;41.43;12.00
63535;BME280;55128;50.230;18.944;2023-06-01T09:15:27;98526.06;;;39.31;13.56
63535;BME280;55128;50.230;18.944;2023-06-01T09:20:28;98528.81;;;40.07;12.94
63535;BME280;55128;50.230;18.944;2023-06-01T09:25:33;98512.38;;;38.41;14.08
63535;BME280;55128;50.230;18.944;2023-06-01T09:30:39;98515.72;;;39.75;13.03
63535;BME280;55128;50.230;18.944;2023-06-01T09:35:47;98518.94;;;39.40;12.79
63535;BME280;55128;50.230;18.944;2023-06-01T09:40:59;98499.69;;;36.79;14.90
63535;BME280;55128;50.230;18.944;2023-06-01T09:46:04;98500.31;;;36.46;15.13
63535;BME280;55128;50.230;18.944;2023-06-01T09:51:25;98484.66;;;34.46;17.01
63535;BME280;55128;50.230;18.944;2023-06-01T09:56:43;98492.38;;;33.23;18.41
63535;BME280;55128;50.230;18.944;2023-06-01T10:01:48;98482.91;;;32.47;18.77
63535;BME280;55128;50.230;18.944;2023-06-01T10:06:51;98477.88;;;31.51;19.69
63535;BME280;55128;50.230;18.944;2023-06-01T10:11:55;98473.66;;;31.48;20.42
63535;BME280;55128;50.230;18.944;2023-06-01T10:16:57;98465.72;;;31.12;20.77
63535;BME280;55128;50.230;18.944;2023-06-01T10:21:59;98455.91;;;30.83;21.04
63535;BME280;55128;50.230;18.944;2023-06-01T10:37:38;98437.88;;;29.40;19.94
63535;BME280;55128;50.230;18.944;2023-06-01T10:42:39;98435.72;;;29.79;20.96
63535;BME280;55128;50.230;18.944;2023-06-01T10:52:40;98419.34;;;28.99;22.94
63535;BME280;55128;50.230;18.944;2023-06-01T10:57:44;98414.94;;;29.20;21.19
63535;BME280;55128;50.230;18.944;2023-06-01T11:02:55;98409.91;;;29.45;22.22
63535;BME280;55128;50.230;18.944;2023-06-01T11:07:55;98415.56;;;28.64;22.38
63535;BME280;55128;50.230;18.944;2023-06-01T11:13:14;98403.50;;;28.58;22.93
63535;BME280;55128;50.230;18.944;2023-06-01T11:23:50;98390.78;;;28.65;23.36
63535;BME280;55128;50.230;18.944;2023-06-01T11:28:52;98393.69;;;29.00;23.20
63535;BME280;55128;50.230;18.944;2023-06-01T11:33:53;98376.81;;;28.75;23.75
63535;BME280;55128;50.230;18.944;2023-06-01T11:38:57;98369.00;;;28.94;22.63
63535;BME280;55128;50.230;18.944;2023-06-01T11:43:58;98367.72;;;28.89;23.69
63535;BME280;55128;50.230;18.944;2023-06-01T11:49:04;98356.66;;;28.76;23.83
63535;BME280;55128;50.230;18.944;2023-06-01T11:54:05;98362.66;;;29.08;23.43
63535;BME280;55128;50.230;18.944;2023-06-01T11:59:06;98359.25;;;29.06;24.08
63535;BME280;55128;50.230;18.944;2023-06-01T12:04:14;98351.38;;;28.53;24.80
63535;BME280;55128;50.230;18.944;2023-06-01T12:09:15;98354.28;;;28.73;24.68
63535;BME280;55128;50.230;18.944;2023-06-01T12:14:17;98349.44;;;28.90;23.08
63535;BME280;55128;50.230;18.944;2023-06-01T12:19:17;98344.94;;;28.82;23.80
63535;BME280;55128;50.230;18.944;2023-06-01T12:24:18;98335.72;;;28.83;23.92
63535;BME280;55128;50.230;18.944;2023-06-01T12:29:37;98334.13;;;28.74;23.21
63535;BME280;55128;50.230;18.944;2023-06-01T12:34:39;98327.44;;;28.77;24.02
63535;BME280;55128;50.230;18.944;2023-06-01T12:39:54;98318.63;;;27.64;24.83
63535;BME280;55128;50.230;18.944;2023-06-01T12:44:56;98314.13;;;28.16;24.52
63535;BME280;55128;50.230;18.944;2023-06-01T12:50:06;98309.75;;;28.36;24.27
63535;BME280;55128;50.230;18.944;2023-06-01T12:55:09;98315.00;;;28.38;24.44
63535;BME280;55128;50.230;18.944;2023-06-01T13:00:09;98312.34;;;28.59;23.48
63535;BME280;55128;50.230;18.944;2023-06-01T13:05:11;98314.56;;;28.19;24.24
63535;BME280;55128;50.230;18.944;2023-06-01T13:10:12;98302.47;;;28.07;24.37
63535;BME280;55128;50.230;18.944;2023-06-01T13:15:13;98297.97;;;28.36;23.58
63535;BME280;55128;50.230;18.944;2023-06-01T13:20:14;98300.22;;;28.32;24.90
63535;BME280;55128;50.230;18.944;2023-06-01T13:25:16;98293.63;;;27.90;24.70
63535;BME280;55128;50.230;18.944;2023-06-01T13:30:17;98288.69;;;28.15;24.11
63535;BME280;55128;50.230;18.944;2023-06-01T13:35:17;98281.63;;;28.06;23.99
63535;BME280;55128;50.230;18.944;2023-06-01T13:40:18;98287.25;;;28.19;24.88
63535;BME280;55128;50.230;18.944;2023-06-01T13:45:22;98281.94;;;27.96;24.59
63535;BME280;55128;50.230;18.944;2023-06-01T13:50:23;98276.94;;;27.85;24.82
63535;BME280;55128;50.230;18.944;2023-06-01T13:55:23;98260.69;;;27.47;26.26
63535;BME280;55128;50.230;18.944;2023-06-01T14:00:25;98263.25;;;27.48;25.34
63535;BME280;55128;50.230;18.944;2023-06-01T14:05:27;98256.06;;;27.47;25.07
63535;BME280;55128;50.230;18.944;2023-06-01T14:10:28;98256.06;;;27.77;24.82
63535;BME280;55128;50.230;18.944;2023-06-01T14:15:28;98251.28;;;27.49;23.84
63535;BME280;55128;50.230;18.944;2023-06-01T14:20:30;98240.94;;;27.30;23.32
63535;BME280;55128;50.230;18.944;2023-06-01T14:25:30;98233.50;;;27.53;24.16
63535;BME280;55128;50.230;18.944;2023-06-01T14:30:31;98236.69;;;27.72;24.93
63535;BME280;55128;50.230;18.944;2023-06-01T14:35:31;98231.22;;;27.72;24.70
63535;BME280;55128;50.230;18.944;2023-06-01T14:40:33;98227.81;;;28.00;25.03
63535;BME280;55128;50.230;18.944;2023-06-01T14:45:34;98216.44;;;27.81;24.81
63535;BME280;55128;50.230;18.944;2023-06-01T14:50:34;98219.38;;;27.95;24.01
63535;BME280;55128;50.230;18.944;2023-06-01T14:55:35;98218.56;;;27.49;25.36
63535;BME280;55128;50.230;18.944;2023-06-01T15:00:36;98211.25;;;27.50;25.36
63535;BME280;55128;50.230;18.944;2023-06-01T15:05:36;98221.75;;;27.68;25.47
63535;BME280;55128;50.230;18.944;2023-06-01T15:10:37;98206.16;;;27.47;26.31
63535;BME280;55128;50.230;18.944;2023-06-01T15:15:37;98199.47;;;27.49;24.75
63535;BME280;55128;50.230;18.944;2023-06-01T15:20:37;98202.09;;;27.58;25.29
63535;BME280;55128;50.230;18.944;2023-06-01T15:25:38;98193.00;;;27.36;25.47
63535;BME280;55128;50.230;18.944;2023-06-01T15:30:38;98182.81;;;27.14;25.93
63535;BME280;55128;50.230;18.944;2023-06-01T15:35:38;98183.47;;;27.17;27.14
63535;BME280;55128;50.230;18.944;2023-06-01T15:40:39;98172.44;;;26.95;26.72
63535;BME280;55128;50.230;18.944;2023-06-01T15:45:40;98167.66;;;26.97;26.89
63535;BME280;55128;50.230;18.944;2023-06-01T15:50:40;98157.88;;;26.88;27.24
63535;BME280;55128;50.230;18.944;2023-06-01T15:55:41;98158.00;;;26.94;27.40
63535;BME280;55128;50.230;18.944;2023-06-01T16:00:41;98149.81;;;26.94;27.91
63535;BME280;55128;50.230;18.944;2023-06-01T16:05:41;98147.38;;;26.85;28.51
63535;BME280;55128;50.230;18.944;2023-06-01T16:10:42;98146.34;;;26.48;28.47
63535;BME280;55128;50.230;18.944;2023-06-01T16:15:43;98148.56;;;26.44;28.56
63535;BME280;55128;50.230;18.944;2023-06-01T16:20:44;98148.09;;;26.41;28.46
63535;BME280;55128;50.230;18.944;2023-06-01T16:25:44;98137.41;;;26.16;28.87
63535;BME280;55128;50.230;18.944;2023-06-01T16:30:45;98133.13;;;26.22;29.19
63535;BME280;55128;50.230;18.944;2023-06-01T16:35:45;98124.84;;;26.15;29.45
63535;BME280;55128;50.230;18.944;2023-06-01T16:40:45;98125.75;;;26.07;29.55
63535;BME280;55128;50.230;18.944;2023-06-01T16:45:46;98121.53;;;26.66;29.31
63535;BME280;55128;50.230;18.944;2023-06-01T16:50:46;98115.38;;;26.49;29.04
63535;BME280;55128;50.230;18.944;2023-06-01T16:55:46;98114.25;;;25.97;30.43
63535;BME280;55128;50.230;18.944;2023-06-01T17:00:47;98116.13;;;25.73;30.68
63535;BME280;55128;50.230;18.944;2023-06-01T17:05:47;98102.97;;;25.77;30.72
63535;BME280;55128;50.230;18.944;2023-06-01T17:10:47;98105.84;;;25.52;31.41
63535;BME280;55128;50.230;18.944;2023-06-01T17:15:48;98096.69;;;25.53;31.91
63535;BME280;55128;50.230;18.944;2023-06-01T17:20:48;98105.56;;;25.47;32.42
63535;BME280;55128;50.230;18.944;2023-06-01T17:25:48;98103.25;;;25.36;32.22
63535;BME280;55128;50.230;18.944;2023-06-01T17:30:49;98099.44;;;25.06;33.13
63535;BME280;55128;50.230;18.944;2023-06-01T17:35:50;98103.06;;;24.90;32.89
63535;BME280;55128;50.230;18.944;2023-06-01T17:40:50;98101.72;;;24.86;33.56
63535;BME280;55128;50.230;18.944;2023-06-01T17:45:51;98103.50;;;24.54;33.96
63535;BME280;55128;50.230;18.944;2023-06-01T17:50:51;98105.88;;;24.40;34.83
63535;BME280;55128;50.230;18.944;2023-06-01T17:55:51;98101.97;;;24.18;35.46
63535;BME280;55128;50.230;18.944;2023-06-01T18:00:52;98099.78;;;23.97;36.18
63535;BME280;55128;50.230;18.944;2023-06-01T18:05:52;98097.84;;;23.65;38.26
63535;BME280;55128;50.230;18.944;2023-06-01T18:10:53;98106.41;;;23.36;38.53
63535;BME280;55128;50.230;18.944;2023-06-01T18:15:53;98097.84;;;23.06;40.13
63535;BME280;55128;50.230;18.944;2023-06-01T18:20:53;98092.97;;;22.83;40.21
63535;BME280;55128;50.230;18.944;2023-06-01T18:25:54;98103.09;;;22.47;40.95
63535;BME280;55128;50.230;18.944;2023-06-01T18:30:54;98098.13;;;21.98;41.77
63535;BME280;55128;50.230;18.944;2023-06-01T18:35:54;98100.97;;;21.79;43.58
63535;BME280;55128;50.230;18.944;2023-06-01T18:40:55;98094.16;;;21.57;43.93
63535;BME280;55128;50.230;18.944;2023-06-01T18:45:55;98093.66;;;21.25;44.83
63535;BME280;55128;50.230;18.944;2023-06-01T18:50:57;98095.94;;;20.92;45.27
63535;BME280;55128;50.230;18.944;2023-06-01T18:55:57;98104.72;;;20.57;46.20
63535;BME280;55128;50.230;18.944;2023-06-01T19:00:57;98103.22;;;20.25;47.12
63535;BME280;55128;50.230;18.944;2023-06-01T19:05:58;98108.38;;;19.89;48.18
63535;BME280;55128;50.230;18.944;2023-06-01T19:11:03;98109.81;;;19.74;48.98
63535;BME280;55128;50.230;18.944;2023-06-01T19:16:15;98107.06;;;19.54;49.45
63535;BME280;55128;50.230;18.944;2023-06-01T19:21:17;98104.88;;;19.19;50.20
63535;BME280;55128;50.230;18.944;2023-06-01T19:26:22;98102.41;;;18.96;51.51
63535;BME280;55128;50.230;18.944;2023-06-01T19:31:27;98108.41;;;18.79;52.70
63535;BME280;55128;50.230;18.944;2023-06-01T19:41:43;98097.47;;;18.40;53.69
63535;BME280;55128;50.230;18.944;2023-06-01T19:46:43;98103.00;;;18.17;54.86
63535;BME280;55128;50.230;18.944;2023-06-01T19:51:43;98104.94;;;17.94;56.00
63535;BME280;55128;50.230;18.944;2023-06-01T19:56:44;98103.50;;;17.79;56.41
63535;BME280;55128;50.230;18.944;2023-06-01T20:01:46;98109.53;;;17.71;56.45
63535;BME280;55128;50.230;18.944;2023-06-01T20:06:48;98112.09;;;17.40;58.05
63535;BME280;55128;50.230;18.944;2023-06-01T20:11:51;98111.63;;;17.24;58.07
63535;BME280;55128;50.230;18.944;2023-06-01T20:16:52;98113.38;;;17.14;58.66
63535;BME280;55128;50.230;18.944;2023-06-01T20:21:54;98109.22;;;16.98;58.63
63535;BME280;55128;50.230;18.944;2023-06-01T20:26:56;98115.28;;;16.78;60.31
63535;BME280;55128;50.230;18.944;2023-06-01T20:32:00;98112.88;;;16.63;60.33
63535;BME280;55128;50.230;18.944;2023-06-01T20:37:03;98112.59;;;16.44;61.73
63535;BME280;55128;50.230;18.944;2023-06-01T20:42:05;98112.34;;;16.36;61.79
63535;BME280;55128;50.230;18.944;2023-06-01T20:47:06;98118.81;;;16.33;61.81
63535;BME280;55128;50.230;18.944;2023-06-01T20:52:08;98121.09;;;16.15;62.81
63535;BME280;55128;50.230;18.944;2023-06-01T20:57:08;98117.78;;;16.11;63.23
63535;BME280;55128;50.230;18.944;2023-06-01T21:02:09;98114.78;;;16.27;63.37
63535;BME280;55128;50.230;18.944;2023-06-01T21:07:15;98120.88;;;16.29;63.49
63535;BME280;55128;50.230;18.944;2023-06-01T21:12:15;98109.28;;;16.29;63.67
63535;BME280;55128;50.230;18.944;2023-06-01T21:17:15;98115.88;;;16.25;62.83
63535;BME280;55128;50.230;18.944;2023-06-01T21:22:16;98111.09;;;16.17;63.40
63535;BME280;55128;50.230;18.944;2023-06-01T21:27:16;98116.09;;;16.10;63.67
63535;BME280;55128;50.230;18.944;2023-06-01T21:32:16;98107.16;;;15.99;64.41
63535;BME280;55128;50.230;18.944;2023-06-01T21:37:17;98115.75;;;15.80;65.33
63535;BME280;55128;50.230;18.944;2023-06-01T21:42:17;98113.44;;;15.75;65.25
63535;BME280;55128;50.230;18.944;2023-06-01T21:47:18;98114.06;;;15.79;65.52
63535;BME280;55128;50.230;18.944;2023-06-01T21:52:18;98113.84;;;15.69;65.89
63535;BME280;55128;50.230;18.944;2023-06-01T21:57:18;98114.94;;;15.42;67.17
63535;BME280;55128;50.230;18.944;2023-06-01T22:02:19;98116.03;;;15.40;67.42
63535;BME280;55128;50.230;18.944;2023-06-01T22:07:19;98113.84;;;15.21;68.80
63535;BME280;55128;50.230;18.944;2023-06-01T22:12:21;98112.88;;;15.46;67.18
63535;BME280;55128;50.230;18.944;2023-06-01T22:17:21;98115.44;;;15.47;67.97
63535;BME280;55128;50.230;18.944;2023-06-01T22:22:24;98115.19;;;15.39;67.41
63535;BME280;55128;50.230;18.944;2023-06-01T22:27:25;98114.59;;;15.23;68.08
63535;BME280;55128;50.230;18.944;2023-06-01T22:32:25;98114.50;;;15.24;68.24
63535;BME280;55128;50.230;18.944;2023-06-01T22:37:26;98127.97;;;15.23;68.08
63535;BME280;55128;50.230;18.944;2023-06-01T22:42:26;98126.19;;;14.97;68.96
63535;BME280;55128;50.230;18.944;2023-06-01T22:47:26;98122.88;;;14.94;69.40
63535;BME280;55128;50.230;18.944;2023-06-01T22:52:27;98127.13;;;14.72;69.38
63535;BME280;55128;50.230;18.944;2023-06-01T22:57:28;98127.97;;;14.73;69.45
63535;BME280;55128;50.230;18.944;2023-06-01T23:02:29;98132.25;;;14.63;70.09
63535;BME280;55128;50.230;18.944;2023-06-01T23:07:29;98124.00;;;14.53;70.42
63535;BME280;55128;50.230;18.944;2023-06-01T23:12:31;98126.44;;;14.43;70.32
63535;BME280;55128;50.230;18.944;2023-06-01T23:17:31;98127.09;;;14.34;71.39
63535;BME280;55128;50.230;18.944;2023-06-01T23:22:32;98120.56;;;14.12;72.43
63535;BME280;55128;50.230;18.944;2023-06-01T23:27:36;98127.63;;;14.13;72.30
63535;BME280;55128;50.230;18.944;2023-06-01T23:32:36;98120.13;;;13.93;73.21
63535;BME280;55128;50.230;18.944;2023-06-01T23:37:37;98128.84;;;13.82;73.46
63535;BME280;55128;50.230;18.944;2023-06-01T23:42:37;98131.13;;;14.01;72.64
63535;BME280;55128;50.230;18.944;2023-06-01T23:47:38;98137.81;;;13.81;73.11
63535;BME280;55128;50.230;18.944;2023-06-01T23:52:41;98134.19;;;13.82;73.61
63535;BME280;55128;50.230;18.944;2023-06-01T23:57:41;98124.31;;;13.70;73.79
